sensor_id;sensor_type;location;lat;lon;timestamp;pressure;altitude;pressure_sealevel;temperature;humidity
70323;BME280;57735;56.264;43.898;2023-03-23T00:00:46;100605.28;;;1.87;71.44
70323;BME280;57735;56.264;43.898;2023-03-23T00:03:17;100616.19;;;1.81;71.63
70323;BME280;57735;56.264;43.898;2023-03-23T00:05:48;100605.94;;;1.76;71.82
70323;BME280;57735;56.264;43.898;2023-03-23T00:08:22;100607.91;;;1.72;71.87
70323;BME280;57735;56.264;43.898;2023-03-23T00:10:52;100602.84;;;1.69;71.68
70323;BME280;57735;56.264;43.898;2023-03-23T00:13:27;100603.88;;;1.67;71.60
70323;BME280;57735;56.264;43.898;2023-03-23T00:15:58;100599.56;;;1.66;71.82
70323;BME280;57735;56.264;43.898;2023-03-23T00:18:29;100596.09;;;1.65;71.71
70323;BME280;57735;56.264;43.898;2023-03-23T00:21:01;100607.72;;;1.61;71.78
70323;BME280;57735;56.264;43.898;2023-03-23T00:23:34;100612.97;;;1.61;71.94
70323;BME280;57735;56.264;43.898;2023-03-23T00:26:04;100602.28;;;1.64;71.76
70323;BME280;57735;56.264;43.898;2023-03-23T00:28:37;100596.09;;;1.65;71.70
70323;BME280;57735;56.264;43.898;2023-03-23T00:31:10;100594.41;;;1.64;71.58
70323;BME280;57735;56.264;43.898;2023-03-23T00:33:42;100593.56;;;1.64;71.49
70323;BME280;57735;56.264;43.898;2023-03-23T00:36:13;100601.34;;;1.65;71.46
70323;BME280;57735;56.264;43.898;2023-03-23T00:38:43;100582.88;;;1.67;71.29
70323;BME280;57735;56.264;43.898;2023-03-23T00:41:14;100580.13;;;1.68;71.15
70323;BME280;57735;56.264;43.898;2023-03-23T00:43:45;100587.06;;;1.69;71.07
70323;BME280;57735;56.264;43.898;2023-03-23T00:46:15;100583.50;;;1.70;70.96
70323;BME280;57735;56.264;43.898;2023-03-23T00:48:46;100584.25;;;1.72;70.82
70323;BME280;57735;56.264;43.898;2023-03-23T00:51:17;100579.59;;;1.78;70.76
70323;BME280;57735;56.264;43.898;2023-03-23T00:53:48;100581.09;;;1.82;70.47
70323;BME280;57735;56.264;43.898;2023-03-23T00:56:18;100578.16;;;1.86;70.27
70323;BME280;57735;56.264;43.898;2023-03-23T00:58:49;100584.84;;;1.92;70.19
70323;BME280;57735;56.264;43.898;2023-03-23T01:01:19;100582.78;;;1.97;69.91
70323;BME280;57735;56.264;43.898;2023-03-23T01:03:50;100584.94;;;2.04;69.49
70323;BME280;57735;56.264;43.898;2023-03-23T01:06:20;100575.06;;;2.08;69.26
70323;BME280;57735;56.264;43.898;2023-03-23T01:08:51;100575.66;;;2.13;69.08
70323;BME280;57735;56.264;43.898;2023-03-23T01:11:24;100577.34;;;2.14;68.87
70323;BME280;57735;56.264;43.898;2023-03-23T01:13:55;100579.03;;;2.15;68.68
70323;BME280;57735;56.264;43.898;2023-03-23T01:16:25;100569.25;;;2.17;68.54
70323;BME280;57735;56.264;43.898;2023-03-23T01:18:56;100567.47;;;2.18;68.45
70323;BME280;57735;56.264;43.898;2023-03-23T01:21:26;100566.63;;;2.17;68.32
70323;BME280;57735;56.264;43.898;2023-03-23T01:23:57;100553.56;;;2.16;68.25
70323;BME280;57735;56.264;43.898;2023-03-23T01:26:28;100558.75;;;2.17;68.24
70323;BME280;57735;56.264;43.898;2023-03-23T01:28:59;100561.25;;;2.19;68.08
70323;BME280;57735;56.264;43.898;2023-03-23T01:31:29;100552.13;;;2.24;67.81
70323;BME280;57735;56.264;43.898;2023-03-23T01:34:00;100572.41;;;2.36;67.58
70323;BME280;57735;56.264;43.898;2023-03-23T01:36:31;100559.53;;;2.46;67.35
70323;BME280;57735;56.264;43.898;2023-03-23T01:39:03;100556.28;;;2.55;67.13
70323;BME280;57735;56.264;43.898;2023-03-23T01:41:35;100561.72;;;2.66;66.81
70323;BME280;57735;56.264;43.898;2023-03-23T01:44:06;100556.81;;;2.74;66.48
70323;BME280;57735;56.264;43.898;2023-03-23T01:46:37;100555.28;;;2.85;66.16
70323;BME280;57735;56.264;43.898;2023-03-23T01:49:09;100555.50;;;2.94;65.87
70323;BME280;57735;56.264;43.898;2023-03-23T01:51:48;100555.81;;;3.02;65.75
70323;BME280;57735;56.264;43.898;2023-03-23T01:54:23;100554.50;;;3.09;65.79
70323;BME280;57735;56.264;43.898;2023-03-23T01:56:55;100556.72;;;3.15;65.68
70323;BME280;57735;56.264;43.898;2023-03-23T01:59:27;100551.13;;;3.20;65.70
70323;BME280;57735;56.264;43.898;2023-03-23T02:02:01;100550.09;;;3.23;65.59
70323;BME280;57735;56.264;43.898;2023-03-23T02:04:32;100550.84;;;3.25;65.83
70323;BME280;57735;56.264;43.898;2023-03-23T02:07:04;100558.63;;;3.26;65.88
70323;BME280;57735;56.264;43.898;2023-03-23T02:09:34;100560.31;;;3.27;65.78
70323;BME280;57735;56.264;43.898;2023-03-23T02:12:05;100555.81;;;3.29;65.82
70323;BME280;57735;56.264;43.898;2023-03-23T02:14:36;100555.69;;;3.31;65.88
70323;BME280;57735;56.264;43.898;2023-03-23T02:20:05;100559.06;;;3.33;65.81
70323;BME280;57735;56.264;43.898;2023-03-23T02:28:02;100547.59;;;3.34;65.84
70323;BME280;57735;56.264;43.898;2023-03-23T02:36:00;100545.38;;;3.40;65.53
70323;BME280;57735;56.264;43.898;2023-03-23T02:38:39;100553.28;;;3.40;65.37
70323;BME280;57735;56.264;43.898;2023-03-23T02:41:12;100542.53;;;3.43;65.40
70323;BME280;57735;56.264;43.898;2023-03-23T02:43:44;100542.44;;;3.45;65.21
70323;BME280;57735;56.264;43.898;2023-03-23T02:46:16;100542.44;;;3.45;65.34
70323;BME280;57735;56.264;43.898;2023-03-23T02:48:47;100542.44;;;3.45;65.15
70323;BME280;57735;56.264;43.898;2023-03-23T02:51:21;100547.69;;;3.45;65.24
70323;BME280;57735;56.264;43.898;2023-03-23T02:53:53;100538.66;;;3.49;64.96
70323;BME280;57735;56.264;43.898;2023-03-23T02:56:26;100544.75;;;3.49;64.99
70323;BME280;57735;56.264;43.898;2023-03-23T02:58:58;100550.88;;;3.50;64.99
70323;BME280;57735;56.264;43.898;2023-03-23T03:04:12;100550.66;;;3.53;64.93
70323;BME280;57735;56.264;43.898;2023-03-23T03:09:55;100545.16;;;3.56;64.79
70323;BME280;57735;56.264;43.898;2023-03-23T03:12:27;100543.38;;;3.57;64.66
70323;BME280;57735;56.264;43.898;2023-03-23T03:15:06;100548.75;;;3.55;64.61
70323;BME280;57735;56.264;43.898;2023-03-23T03:17:44;100554.13;;;3.54;64.62
70323;BME280;57735;56.264;43.898;2023-03-23T03:20:16;100547.06;;;3.54;64.83
70323;BME280;57735;56.264;43.898;2023-03-23T03:22:47;100542.63;;;3.55;64.80
70323;BME280;57735;56.264;43.898;2023-03-23T03:25:18;100557.50;;;3.56;64.78
70323;BME280;57735;56.264;43.898;2023-03-23T03:27:49;100549.59;;;3.56;64.61
70323;BME280;57735;56.264;43.898;2023-03-23T03:30:24;100544.22;;;3.57;64.57
70323;BME280;57735;56.264;43.898;2023-03-23T03:32:57;100547.69;;;3.58;64.49
70323;BME280;57735;56.264;43.898;2023-03-23T03:35:30;100543.16;;;3.60;64.54
70323;BME280;57735;56.264;43.898;2023-03-23T03:38:06;100544.97;;;3.59;64.40
70323;BME280;57735;56.264;43.898;2023-03-23T03:40:38;100541.38;;;3.60;64.38
70323;BME280;57735;56.264;43.898;2023-03-23T03:43:08;100545.59;;;3.63;64.20
70323;BME280;57735;56.264;43.898;2023-03-23T03:45:39;100543.59;;;3.66;64.33
70323;BME280;57735;56.264;43.898;2023-03-23T03:48:11;100539.06;;;3.68;64.22
70323;BME280;57735;56.264;43.898;2023-03-23T03:50:41;100541.38;;;3.73;63.96
70323;BME280;57735;56.264;43.898;2023-03-23T03:53:12;100540.53;;;3.72;63.97
70323;BME280;57735;56.264;43.898;2023-03-23T03:55:43;100547.50;;;3.73;63.99
70323;BME280;57735;56.264;43.898;2023-03-23T03:58:15;100548.03;;;3.78;63.86
70323;BME280;57735;56.264;43.898;2023-03-23T04:00:46;100547.72;;;3.83;63.86
70323;BME280;57735;56.264;43.898;2023-03-23T04:03:18;100553.00;;;3.83;63.96
70323;BME280;57735;56.264;43.898;2023-03-23T04:05:48;100550.97;;;3.86;63.49
70323;BME280;57735;56.264;43.898;2023-03-23T04:08:19;100555.81;;;3.93;63.46
70323;BME280;57735;56.264;43.898;2023-03-23T04:10:49;100546.84;;;3.95;63.51
70323;BME280;57735;56.264;43.898;2023-03-23T04:13:23;100544.84;;;3.99;63.46
70323;BME280;57735;56.264;43.898;2023-03-23T04:15:54;100548.94;;;4.03;63.15
70323;BME280;57735;56.264;43.898;2023-03-23T04:18:24;100544.28;;;4.06;63.10
70323;BME280;57735;56.264;43.898;2023-03-23T04:20:58;100551.25;;;4.07;62.86
70323;BME280;57735;56.264;43.898;2023-03-23T04:23:30;100552.94;;;4.08;62.73
70323;BME280;57735;56.264;43.898;2023-03-23T04:26:03;100558.84;;;4.12;62.80
70323;BME280;57735;56.264;43.898;2023-03-23T04:28:34;100559.59;;;4.14;62.58
70323;BME280;57735;56.264;43.898;2023-03-23T04:31:04;100550.63;;;4.16;62.71
70323;BME280;57735;56.264;43.898;2023-03-23T04:33:35;100549.31;;;4.22;62.53
70323;BME280;57735;56.264;43.898;2023-03-23T04:36:07;100542.88;;;4.26;62.30
70323;BME280;57735;56.264;43.898;2023-03-23T04:38:37;100542.56;;;4.31;62.06
70323;BME280;57735;56.264;43.898;2023-03-23T04:41:08;100544.16;;;4.33;62.06
70323;BME280;57735;56.264;43.898;2023-03-23T04:43:39;100536.81;;;4.37;61.85
70323;BME280;57735;56.264;43.898;2023-03-23T04:46:11;100545.16;;;4.43;61.47
70323;BME280;57735;56.264;43.898;2023-03-23T04:48:45;100547.25;;;4.51;61.52
70323;BME280;57735;56.264;43.898;2023-03-23T04:51:16;100543.31;;;4.56;61.28
70323;BME280;57735;56.264;43.898;2023-03-23T04:53:46;100545.75;;;4.60;61.42
70323;BME280;57735;56.264;43.898;2023-03-23T04:56:17;100549.63;;;4.67;61.08
70323;BME280;57735;56.264;43.898;2023-03-23T04:58:48;100545.91;;;4.69;60.72
70323;BME280;57735;56.264;43.898;2023-03-23T05:01:21;100550.84;;;4.74;60.97
70323;BME280;57735;56.264;43.898;2023-03-23T05:03:57;100554.84;;;4.79;60.65
70323;BME280;57735;56.264;43.898;2023-03-23T05:06:30;100559.69;;;4.85;60.39
70323;BME280;57735;56.264;43.898;2023-03-23T05:09:01;100556.81;;;4.88;60.34
70323;BME280;57735;56.264;43.898;2023-03-23T05:11:32;100546.97;;;4.90;60.20
70323;BME280;57735;56.264;43.898;2023-03-23T05:14:05;100544.09;;;4.94;60.07
70323;BME280;57735;56.264;43.898;2023-03-23T05:16:36;100544.72;;;4.97;59.85
70323;BME280;57735;56.264;43.898;2023-03-23T05:19:07;100542.81;;;4.99;59.75
70323;BME280;57735;56.264;43.898;2023-03-23T05:21:38;100544.50;;;5.00;59.51
70323;BME280;57735;56.264;43.898;2023-03-23T05:24:08;100548.84;;;5.01;59.50
70323;BME280;57735;56.264;43.898;2023-03-23T05:26:39;100547.88;;;5.02;59.72
70323;BME280;57735;56.264;43.898;2023-03-23T05:29:09;100558.66;;;4.99;59.71
70323;BME280;57735;56.264;43.898;2023-03-23T05:31:40;100561.09;;;5.02;59.51
70323;BME280;57735;56.264;43.898;2023-03-23T05:34:14;100554.38;;;5.09;59.29
70323;BME280;57735;56.264;43.898;2023-03-23T05:36:46;100550.88;;;5.09;59.26
70323;BME280;57735;56.264;43.898;2023-03-23T05:39:17;100551.72;;;5.09;59.24
70323;BME280;57735;56.264;43.898;2023-03-23T05:41:47;100547.91;;;5.13;59.34
70323;BME280;57735;56.264;43.898;2023-03-23T05:44:18;100545.41;;;5.23;58.96
70323;BME280;57735;56.264;43.898;2023-03-23T05:46:49;100553.72;;;5.30;58.72
70323;BME280;57735;56.264;43.898;2023-03-23T05:49:19;100546.53;;;5.32;58.68
70323;BME280;57735;56.264;43.898;2023-03-23T05:51:50;100539.34;;;5.34;58.62
70323;BME280;57735;56.264;43.898;2023-03-23T05:54:21;100551.22;;;5.39;58.38
70323;BME280;57735;56.264;43.898;2023-03-23T05:56:52;100564.09;;;5.44;58.20
70323;BME280;57735;56.264;43.898;2023-03-23T05:59:25;100555.94;;;5.47;58.31
70323;BME280;57735;56.264;43.898;2023-03-23T06:01:55;100569.16;;;5.47;58.06
70323;BME280;57735;56.264;43.898;2023-03-23T06:04:30;100566.41;;;5.48;58.21
70323;BME280;57735;56.264;43.898;2023-03-23T06:07:04;100563.28;;;5.54;58.21
70323;BME280;57735;56.264;43.898;2023-03-23T06:09:34;100556.06;;;5.56;57.91
70323;BME280;57735;56.264;43.898;2023-03-23T06:12:05;100561.13;;;5.59;57.80
70323;BME280;57735;56.264;43.898;2023-03-23T06:14:36;100560.06;;;5.62;57.91
70323;BME280;57735;56.264;43.898;2023-03-23T06:17:09;100559.72;;;5.67;57.75
70323;BME280;57735;56.264;43.898;2023-03-23T06:19:40;100555.38;;;5.66;57.35
70323;BME280;57735;56.264;43.898;2023-03-23T06:22:11;100557.78;;;5.69;57.73
70323;BME280;57735;56.264;43.898;2023-03-23T06:24:42;100558.03;;;5.77;57.63
70323;BME280;57735;56.264;43.898;2023-03-23T06:27:12;100554.91;;;5.83;57.57
70323;BME280;57735;56.264;43.898;2023-03-23T06:29:43;100559.25;;;5.84;57.23
70323;BME280;57735;56.264;43.898;2023-03-23T06:32:14;100573.44;;;5.83;57.37
70323;BME280;57735;56.264;43.898;2023-03-23T06:34:45;100566.72;;;5.90;57.30
70323;BME280;57735;56.264;43.898;2023-03-23T06:37:17;100564.81;;;5.92;57.10
70323;BME280;57735;56.264;43.898;2023-03-23T06:39:51;100560.13;;;5.95;56.99
70323;BME280;57735;56.264;43.898;2023-03-23T06:42:22;100559.66;;;6.02;56.86
70323;BME280;57735;56.264;43.898;2023-03-23T06:44:56;100566.25;;;6.07;56.80
70323;BME280;57735;56.264;43.898;2023-03-23T06:47:27;100568.53;;;6.12;56.87
70323;BME280;57735;56.264;43.898;2023-03-23T06:50:00;100572.25;;;6.20;56.67
70323;BME280;57735;56.264;43.898;2023-03-23T06:52:30;100575.06;;;6.19;56.33
70323;BME280;57735;56.264;43.898;2023-03-23T06:55:02;100576.84;;;6.18;56.40
70323;BME280;57735;56.264;43.898;2023-03-23T06:57:33;100575.16;;;6.17;56.50
70323;BME280;57735;56.264;43.898;2023-03-23T07:00:06;100582.13;;;6.29;56.44
70323;BME280;57735;56.264;43.898;2023-03-23T07:02:39;100575.41;;;6.37;56.23
70323;BME280;57735;56.264;43.898;2023-03-23T07:05:10;100568.53;;;6.45;55.91
70323;BME280;57735;56.264;43.898;2023-03-23T07:07:41;100575.47;;;6.57;55.52
70323;BME280;57735;56.264;43.898;2023-03-23T07:10:13;100571.25;;;6.66;55.27
70323;BME280;57735;56.264;43.898;2023-03-23T07:12:43;100561.72;;;6.75;55.47
70323;BME280;57735;56.264;43.898;2023-03-23T07:15:14;100565.31;;;6.74;55.08
70323;BME280;57735;56.264;43.898;2023-03-23T07:17:46;100566.28;;;6.84;55.00
70323;BME280;57735;56.264;43.898;2023-03-23T07:20:17;100563.34;;;6.98;54.73
70323;BME280;57735;56.264;43.898;2023-03-23T07:22:48;100545.06;;;7.16;54.38
70323;BME280;57735;56.264;43.898;2023-03-23T07:25:19;100544.16;;;7.26;53.89
70323;BME280;57735;56.264;43.898;2023-03-23T07:27:50;100541.72;;;7.34;53.55
70323;BME280;57735;56.264;43.898;2023-03-23T07:30:21;100546.94;;;7.46;53.29
70323;BME280;57735;56.264;43.898;2023-03-23T07:32:52;100545.59;;;7.51;52.78
70323;BME280;57735;56.264;43.898;2023-03-23T07:35:23;100540.44;;;7.50;52.82
70323;BME280;57735;56.264;43.898;2023-03-23T07:37:56;100544.22;;;7.57;53.02
70323;BME280;57735;56.264;43.898;2023-03-23T07:40:27;100547.78;;;7.67;52.71
70323;BME280;57735;56.264;43.898;2023-03-23T07:42:58;100551.59;;;7.74;52.51
70323;BME280;57735;56.264;43.898;2023-03-23T07:45:29;100538.97;;;7.87;52.19
70323;BME280;57735;56.264;43.898;2023-03-23T07:48:00;100545.66;;;7.91;52.07
70323;BME280;57735;56.264;43.898;2023-03-23T07:50:33;100541.13;;;8.03;51.92
70323;BME280;57735;56.264;43.898;2023-03-23T07:53:06;100532.19;;;8.04;51.93
70323;BME280;57735;56.264;43.898;2023-03-23T07:55:37;100536.66;;;8.03;51.71
70323;BME280;57735;56.264;43.898;2023-03-23T07:58:08;100529.69;;;8.12;51.51
70323;BME280;57735;56.264;43.898;2023-03-23T08:00:47;100546.66;;;8.21;51.08
70323;BME280;57735;56.264;43.898;2023-03-23T08:03:19;100542.84;;;8.23;51.13
70323;BME280;57735;56.264;43.898;2023-03-23T08:05:49;100538.72;;;8.30;50.80
70323;BME280;57735;56.264;43.898;2023-03-23T08:08:20;100543.66;;;8.35;50.72
70323;BME280;57735;56.264;43.898;2023-03-23T08:10:50;100539.31;;;8.44;50.76
70323;BME280;57735;56.264;43.898;2023-03-23T08:13:21;100528.16;;;8.59;50.32
70323;BME280;57735;56.264;43.898;2023-03-23T08:15:52;100520.09;;;8.70;50.33
70323;BME280;57735;56.264;43.898;2023-03-23T08:18:23;100524.28;;;8.73;49.92
70323;BME280;57735;56.264;43.898;2023-03-23T08:20:53;100517.16;;;8.83;49.84
70323;BME280;57735;56.264;43.898;2023-03-23T08:23:24;100507.78;;;8.79;49.62
70323;BME280;57735;56.264;43.898;2023-03-23T08:25:54;100517.28;;;8.72;49.87
70323;BME280;57735;56.264;43.898;2023-03-23T08:28:26;100510.16;;;8.63;50.28
70323;BME280;57735;56.264;43.898;2023-03-23T08:30:57;100513.63;;;8.54;50.43
70323;BME280;57735;56.264;43.898;2023-03-23T08:33:27;100504.34;;;8.38;51.00
70323;BME280;57735;56.264;43.898;2023-03-23T08:35:58;100500.94;;;8.27;51.07
70323;BME280;57735;56.264;43.898;2023-03-23T08:38:29;100494.78;;;8.17;51.59
70323;BME280;57735;56.264;43.898;2023-03-23T08:41:01;100493.09;;;8.16;51.53
70323;BME280;57735;56.264;43.898;2023-03-23T08:43:33;100494.22;;;8.13;51.96
70323;BME280;57735;56.264;43.898;2023-03-23T08:46:07;100489.81;;;8.43;50.79
70323;BME280;57735;56.264;43.898;2023-03-23T08:48:40;100485.53;;;8.51;50.90
70323;BME280;57735;56.264;43.898;2023-03-23T08:51:13;100482.59;;;8.64;51.03
70323;BME280;57735;56.264;43.898;2023-03-23T08:53:43;100475.16;;;8.58;51.53
70323;BME280;57735;56.264;43.898;2023-03-23T08:56:14;100477.13;;;8.56;51.39
70323;BME280;57735;56.264;43.898;2023-03-23T08:58:44;100474.75;;;8.62;51.45
70323;BME280;57735;56.264;43.898;2023-03-23T09:01:15;100475.34;;;9.04;50.35
70323;BME280;57735;56.264;43.898;2023-03-23T09:03:46;100475.03;;;9.17;49.85
70323;BME280;57735;56.264;43.898;2023-03-23T09:06:17;100473.88;;;9.29;49.93
70323;BME280;57735;56.264;43.898;2023-03-23T09:08:47;100468.25;;;9.42;49.32
70323;BME280;57735;56.264;43.898;2023-03-23T09:11:18;100471.63;;;9.34;49.14
70323;BME280;57735;56.264;43.898;2023-03-23T09:13:49;100469.25;;;9.22;49.36
70323;BME280;57735;56.264;43.898;2023-03-23T09:16:19;100457.81;;;9.21;49.56
70323;BME280;57735;56.264;43.898;2023-03-23T09:18:50;100455.00;;;9.13;49.50
70323;BME280;57735;56.264;43.898;2023-03-23T09:21:24;100458.50;;;9.14;49.92
70323;BME280;57735;56.264;43.898;2023-03-23T09:23:56;100460.75;;;9.18;49.76
70323;BME280;57735;56.264;43.898;2023-03-23T09:26:34;100453.63;;;9.19;49.69
70323;BME280;57735;56.264;43.898;2023-03-23T09:29:05;100445.63;;;9.19;49.32
70323;BME280;57735;56.264;43.898;2023-03-23T09:31:35;100451.22;;;9.16;50.04
70323;BME280;57735;56.264;43.898;2023-03-23T09:34:07;100433.28;;;9.27;49.67
70323;BME280;57735;56.264;43.898;2023-03-23T09:36:41;100445.50;;;9.67;48.79
70323;BME280;57735;56.264;43.898;2023-03-23T09:39:12;100431.59;;;10.00;47.99
70323;BME280;57735;56.264;43.898;2023-03-23T09:41:54;100429.81;;;9.91;48.48
70323;BME280;57735;56.264;43.898;2023-03-23T09:49:36;100420.03;;;10.19;47.98
70323;BME280;57735;56.264;43.898;2023-03-23T09:52:14;100401.75;;;10.24;48.08
70323;BME280;57735;56.264;43.898;2023-03-23T09:54:46;100386.66;;;10.15;48.04
70323;BME280;57735;56.264;43.898;2023-03-23T09:57:35;100402.44;;;9.99;48.25
70323;BME280;57735;56.264;43.898;2023-03-23T10:00:15;100390.00;;;9.90;48.81
70323;BME280;57735;56.264;43.898;2023-03-23T10:02:53;100390.38;;;10.04;48.37
70323;BME280;57735;56.264;43.898;2023-03-23T10:05:35;100379.84;;;10.30;48.21
70323;BME280;57735;56.264;43.898;2023-03-23T10:08:14;100378.44;;;10.62;47.78
70323;BME280;57735;56.264;43.898;2023-03-23T10:16:08;100371.34;;;11.14;46.76
70323;BME280;57735;56.264;43.898;2023-03-23T10:18:43;100368.56;;;10.98;47.38
70323;BME280;57735;56.264;43.898;2023-03-23T10:21:17;100364.59;;;11.02;47.06
70323;BME280;57735;56.264;43.898;2023-03-23T10:23:53;100355.69;;;10.93;47.81
70323;BME280;57735;56.264;43.898;2023-03-23T10:29:26;100355.91;;;11.00;48.03
70323;BME280;57735;56.264;43.898;2023-03-23T10:31:59;100348.88;;;11.25;47.32
70323;BME280;57735;56.264;43.898;2023-03-23T10:34:33;100348.00;;;11.16;47.99
70323;BME280;57735;56.264;43.898;2023-03-23T10:37:14;100351.91;;;11.30;47.45
70323;BME280;57735;56.264;43.898;2023-03-23T10:39:56;100337.13;;;11.43;47.43
70323;BME280;57735;56.264;43.898;2023-03-23T10:42:38;100336.44;;;11.33;47.74
70323;BME280;57735;56.264;43.898;2023-03-23T10:45:15;100336.72;;;11.22;48.26
70323;BME280;57735;56.264;43.898;2023-03-23T10:48:12;100343.34;;;11.18;48.50
70323;BME280;57735;56.264;43.898;2023-03-23T10:50:46;100322.09;;;11.34;48.40
70323;BME280;57735;56.264;43.898;2023-03-23T10:53:22;100327.06;;;11.29;48.22
70323;BME280;57735;56.264;43.898;2023-03-23T10:55:56;100312.63;;;11.14;48.90
70323;BME280;57735;56.264;43.898;2023-03-23T10:58:31;100321.41;;;11.32;48.66
70323;BME280;57735;56.264;43.898;2023-03-23T11:01:03;100315.81;;;11.51;48.11
70323;BME280;57735;56.264;43.898;2023-03-23T11:06:11;100315.06;;;11.33;48.92
70323;BME280;57735;56.264;43.898;2023-03-23T11:08:53;100310.50;;;11.17;49.08
70323;BME280;57735;56.264;43.898;2023-03-23T11:11:26;100309.66;;;11.17;49.30
70323;BME280;57735;56.264;43.898;2023-03-23T11:14:01;100307.69;;;11.27;49.64
70323;BME280;57735;56.264;43.898;2023-03-23T11:16:33;100291.00;;;11.25;49.93
70323;BME280;57735;56.264;43.898;2023-03-23T11:19:15;100286.31;;;11.19;49.89
70323;BME280;57735;56.264;43.898;2023-03-23T11:21:50;100288.31;;;11.17;50.02
70323;BME280;57735;56.264;43.898;2023-03-23T11:24:26;100292.66;;;11.18;50.00
70323;BME280;57735;56.264;43.898;2023-03-23T11:26:57;100287.13;;;11.62;49.18
70323;BME280;57735;56.264;43.898;2023-03-23T11:29:28;100280.13;;;11.61;49.18
70323;BME280;57735;56.264;43.898;2023-03-23T11:34:32;100271.00;;;11.29;49.85
70323;BME280;57735;56.264;43.898;2023-03-23T11:37:25;100266.00;;;11.26;49.71
70323;BME280;57735;56.264;43.898;2023-03-23T11:40:10;100267.00;;;11.25;50.06
70323;BME280;57735;56.264;43.898;2023-03-23T11:42:49;100255.47;;;11.16;50.30
70323;BME280;57735;56.264;43.898;2023-03-23T11:45:34;100264.31;;;11.25;50.16
70323;BME280;57735;56.264;43.898;2023-03-23T11:48:26;100252.03;;;11.32;49.87
70323;BME280;57735;56.264;43.898;2023-03-23T11:51:02;100239.81;;;11.30;49.68
70323;BME280;57735;56.264;43.898;2023-03-23T11:53:44;100239.63;;;11.23;49.93
70323;BME280;57735;56.264;43.898;2023-03-23T11:56:19;100249.97;;;11.26;50.27
70323;BME280;57735;56.264;43.898;2023-03-23T11:58:54;100243.94;;;11.16;50.30
70323;BME280;57735;56.264;43.898;2023-03-23T12:04:40;100239.25;;;11.10;50.84
70323;BME280;57735;56.264;43.898;2023-03-23T12:10:23;100236.59;;;11.10;50.86
70323;BME280;57735;56.264;43.898;2023-03-23T12:23:23;100227.44;;;11.12;51.08
70323;BME280;57735;56.264;43.898;2023-03-23T12:33:59;100208.63;;;11.22;50.87
70323;BME280;57735;56.264;43.898;2023-03-23T12:36:59;100208.63;;;11.22;50.91
70323;BME280;57735;56.264;43.898;2023-03-23T12:39:39;100202.00;;;11.34;50.65
70323;BME280;57735;56.264;43.898;2023-03-23T12:53:15;100200.00;;;11.44;50.76
70323;BME280;57735;56.264;43.898;2023-03-23T12:55:49;100202.84;;;11.43;50.71
70323;BME280;57735;56.264;43.898;2023-03-23T12:58:25;100204.19;;;11.39;50.85
70323;BME280;57735;56.264;43.898;2023-03-23T13:01:04;100195.81;;;11.34;51.08
70323;BME280;57735;56.264;43.898;2023-03-23T13:04:02;100186.94;;;11.25;51.18
70323;BME280;57735;56.264;43.898;2023-03-23T13:06:37;100187.59;;;11.19;51.65
70323;BME280;57735;56.264;43.898;2023-03-23T13:11:53;100182.44;;;11.17;51.84
70323;BME280;57735;56.264;43.898;2023-03-23T13:14:37;100199.22;;;11.10;52.19
70323;BME280;57735;56.264;43.898;2023-03-23T13:22:57;100184.06;;;11.02;52.33
70323;BME280;57735;56.264;43.898;2023-03-23T13:28:20;100188.50;;;10.94;52.54
70323;BME280;57735;56.264;43.898;2023-03-23T13:30:53;100192.97;;;10.85;52.69
70323;BME280;57735;56.264;43.898;2023-03-23T13:33:25;100193.16;;;10.92;52.58
70323;BME280;57735;56.264;43.898;2023-03-23T13:36:03;100195.50;;;10.87;52.54
70323;BME280;57735;56.264;43.898;2023-03-23T13:38:37;100193.59;;;10.79;52.80
70323;BME280;57735;56.264;43.898;2023-03-23T13:41:10;100189.75;;;10.73;53.05
70323;BME280;57735;56.264;43.898;2023-03-23T13:43:41;100191.06;;;10.69;53.14
70323;BME280;57735;56.264;43.898;2023-03-23T13:54:05;100196.88;;;10.65;53.11
70323;BME280;57735;56.264;43.898;2023-03-23T13:56:47;100201.00;;;10.59;53.22
70323;BME280;57735;56.264;43.898;2023-03-23T14:04:47;100187.38;;;10.36;53.82
70323;BME280;57735;56.264;43.898;2023-03-23T14:07:20;100193.03;;;10.33;53.85
70323;BME280;57735;56.264;43.898;2023-03-23T14:09:50;100194.09;;;10.23;53.96
70323;BME280;57735;56.264;43.898;2023-03-23T14:12:22;100201.47;;;10.11;54.29
70323;BME280;57735;56.264;43.898;2023-03-23T14:14:57;100204.94;;;10.03;54.54
70323;BME280;57735;56.264;43.898;2023-03-23T14:17:35;100203.56;;;9.99;54.64
70323;BME280;57735;56.264;43.898;2023-03-23T14:20:18;100199.97;;;9.91;55.03
70323;BME280;57735;56.264;43.898;2023-03-23T14:22:54;100208.38;;;9.78;55.55
70323;BME280;57735;56.264;43.898;2023-03-23T14:25:26;100208.31;;;9.70;55.61
70323;BME280;57735;56.264;43.898;2023-03-23T14:28:02;100202.06;;;9.61;55.59
70323;BME280;57735;56.264;43.898;2023-03-23T14:30:54;100212.50;;;9.55;55.90
70323;BME280;57735;56.264;43.898;2023-03-23T14:33:25;100208.06;;;9.45;56.08
70323;BME280;57735;56.264;43.898;2023-03-23T14:35:57;100222.50;;;9.61;55.66
70323;BME280;57735;56.264;43.898;2023-03-23T14:38:29;100215.44;;;9.52;56.01
70323;BME280;57735;56.264;43.898;2023-03-23T14:41:05;100208.34;;;9.42;55.93
70323;BME280;57735;56.264;43.898;2023-03-23T14:43:36;100210.53;;;9.29;56.35
70323;BME280;57735;56.264;43.898;2023-03-23T14:46:08;100200.56;;;9.14;56.61
70323;BME280;57735;56.264;43.898;2023-03-23T14:48:41;100200.44;;;9.05;56.92
70323;BME280;57735;56.264;43.898;2023-03-23T14:51:17;100209.75;;;8.92;57.24
70323;BME280;57735;56.264;43.898;2023-03-23T14:53:48;100212.47;;;8.82;57.40
70323;BME280;57735;56.264;43.898;2023-03-23T14:56:22;100194.31;;;8.78;57.66